createdAt,value
2019-02-22T00:00:38.590Z,101601.47
2019-02-22T00:01:12.632Z,101608.73
2019-02-22T00:01:45.790Z,101607.75
2019-02-22T00:02:18.991Z,101621.90
2019-02-22T00:02:50.235Z,101615.30
2019-02-22T00:03:21.556Z,101618.80
2019-02-22T00:03:52.832Z,101620.88
2019-02-22T00:04:24.210Z,101626.45
2019-02-22T00:04:55.478Z,101628.18
2019-02-22T00:05:26.778Z,101625.08
2019-02-22T00:05:58.024Z,101629.64
2019-02-22T00:06:31.241Z,101635.64
2019-02-22T00:07:02.466Z,101632.03
2019-02-22T00:07:33.778Z,101634.81
2019-02-22T00:08:05.020Z,101637.91
2019-02-22T00:08:36.337Z,101641.80
2019-02-22T00:09:07.541Z,101642.98
2019-02-22T00:09:48.851Z,101639.67
2019-02-22T00:10:12.195Z,101645.77
2019-02-22T00:10:43.506Z,101645.77
2019-02-22T00:11:14.747Z,101648.23
2019-02-22T00:11:46.132Z,101643.94
2019-02-22T00:12:17.356Z,101643.94
2019-02-22T00:12:48.688Z,101649.91
2019-02-22T00:13:19.935Z,101641.11
2019-02-22T00:13:51.244Z,101631.00
2019-02-22T00:14:22.508Z,101649.14
2019-02-22T00:14:53.833Z,101649.14
2019-02-22T00:15:25.077Z,101659.03
2019-02-22T00:15:56.399Z,101656.20
2019-02-22T00:16:27.629Z,101652.73
2019-02-22T00:16:59.034Z,101651.72
2019-02-22T00:17:30.280Z,101658.98
2019-02-22T00:18:01.601Z,101659.28
2019-02-22T00:18:32.823Z,101654.10
2019-02-22T00:19:04.133Z,101657.48
2019-02-22T00:19:35.371Z,101656.06
2019-02-22T00:20:06.863Z,101660.34
2019-02-22T00:20:38.226Z,101659.55
2019-02-22T00:21:09.533Z,101659.55
2019-02-22T00:21:40.815Z,101671.52
2019-02-22T00:22:12.227Z,101671.52
2019-02-22T00:22:44.529Z,101665.10
2019-02-22T00:23:15.860Z,101675.59
2019-02-22T00:23:47.114Z,101679.17
2019-02-22T00:24:18.435Z,101681.25
2019-02-22T00:24:49.673Z,101680.26
2019-02-22T00:25:22.019Z,101672.36
2019-02-22T00:25:53.252Z,101681.31
2019-02-22T00:26:24.598Z,101686.41
2019-02-22T00:26:55.855Z,101694.27
2019-02-22T00:27:27.182Z,101690.80
2019-02-22T00:27:58.514Z,101697.76
2019-02-22T00:28:29.870Z,101693.39
2019-02-22T00:29:01.146Z,101694.17
2019-02-22T00:29:32.433Z,101694.17
2019-02-22T00:30:05.917Z,101701.55
2019-02-22T00:30:37.206Z,101699.14
2019-02-22T00:31:08.504Z,101698.00
2019-02-22T00:31:39.782Z,101698.00
2019-02-22T00:32:11.024Z,101700.89
2019-02-22T00:32:42.710Z,101692.48
2019-02-22T00:33:14.082Z,101699.77
2019-02-22T00:33:45.366Z,101693.48
2019-02-22T00:34:16.814Z,101693.48
2019-02-22T00:34:48.172Z,101695.03
2019-02-22T00:35:19.514Z,101695.82
2019-02-22T00:35:50.826Z,101703.98
2019-02-22T00:36:22.209Z,101697.50
2019-02-22T00:36:53.510Z,101697.50
2019-02-22T00:37:24.873Z,101706.09
2019-02-22T00:37:56.191Z,101705.19
2019-02-22T00:38:27.430Z,101699.49
2019-02-22T00:38:58.703Z,101695.61
2019-02-22T00:39:29.983Z,101690.69
2019-02-22T00:40:01.453Z,101696.30
2019-02-22T00:40:32.861Z,101701.05
2019-02-22T00:41:04.095Z,101701.05
2019-02-22T00:41:35.426Z,101701.87
2019-02-22T00:42:06.669Z,101692.68
2019-02-22T00:42:37.972Z,101705.11
2019-02-22T00:43:09.251Z,101705.11
2019-02-22T00:43:40.544Z,101702.44
2019-02-22T00:44:11.821Z,101707.70
2019-02-22T00:44:43.332Z,101720.14
2019-02-22T00:45:14.602Z,101698.55
2019-02-22T00:45:45.874Z,101715.37
2019-02-22T00:46:17.159Z,101704.90
2019-02-22T00:46:48.437Z,101694.02
2019-02-22T00:47:19.734Z,101697.56
2019-02-22T00:47:50.997Z,101694.08
2019-02-22T00:48:22.254Z,101705.34
2019-02-22T00:48:53.530Z,101692.62
2019-02-22T00:49:24.809Z,101692.62
2019-02-22T00:49:56.112Z,101707.92
2019-02-22T00:50:27.383Z,101718.41
2019-02-22T00:50:58.663Z,101718.41
2019-02-22T00:51:29.934Z,101714.91
2019-02-22T00:52:01.201Z,101710.42
2019-02-22T00:52:32.470Z,101717.67
2019-02-22T00:53:03.892Z,101715.87
2019-02-22T00:53:35.197Z,101717.67
2019-02-22T00:54:06.470Z,101719.36
2019-02-22T00:54:37.758Z,101726.09
2019-02-22T00:55:09.061Z,101731.70
2019-02-22T00:55:40.430Z,101722.64
2019-02-22T00:56:11.705Z,101733.77
2019-02-22T00:56:43.210Z,101740.34
2019-02-22T00:57:14.492Z,101737.75
2019-02-22T00:57:45.785Z,101739.86
2019-02-22T00:58:17.061Z,101743.61
2019-02-22T00:58:48.347Z,101749.19
2019-02-22T00:59:19.679Z,101730.28
2019-02-22T00:59:50.943Z,101730.28
2019-02-22T01:00:22.252Z,101749.96
2019-02-22T01:00:53.491Z,101755.56
2019-02-22T01:01:25.807Z,101759.02
2019-02-22T01:01:58.033Z,101758.16
2019-02-22T01:02:29.284Z,101760.22
2019-02-22T01:03:01.543Z,101752.98
2019-02-22T01:03:32.847Z,101751.25
2019-02-22T01:04:04.111Z,101752.98
2019-02-22T01:04:35.395Z,101758.16
2019-02-22T01:05:06.621Z,101758.41
2019-02-22T01:05:38.051Z,101759.93
2019-02-22T01:06:09.303Z,101764.33
2019-02-22T01:06:40.619Z,101770.41
2019-02-22T01:07:11.906Z,101767.31
2019-02-22T01:07:43.415Z,101765.36
2019-02-22T01:08:14.671Z,101762.86
2019-02-22T01:08:46.223Z,101766.88
2019-02-22T01:09:17.468Z,101769.08
2019-02-22T01:09:48.768Z,101768.30
2019-02-22T01:10:30.422Z,101765.28
2019-02-22T01:10:53.241Z,101769.68
2019-02-22T01:11:24.486Z,101769.80
2019-02-22T01:11:55.802Z,101769.80
2019-02-22T01:12:27.054Z,101770.98
2019-02-22T01:12:58.356Z,101766.58
2019-02-22T01:13:29.704Z,101773.05
2019-02-22T01:14:01.024Z,101780.94
2019-02-22T01:14:32.404Z,101773.56
2019-02-22T01:15:05.150Z,101773.56
2019-02-22T01:15:36.603Z,101776.55
2019-02-22T01:16:07.976Z,101774.86
2019-02-22T01:16:40.310Z,101774.86
2019-02-22T01:17:11.658Z,101777.58
2019-02-22T01:17:43.239Z,101781.97
2019-02-22T01:18:14.603Z,101771.62
2019-02-22T01:18:46.006Z,101771.62
2019-02-22T01:19:17.439Z,101786.25
2019-02-22T01:19:48.769Z,101786.13
2019-02-22T01:20:20.217Z,101782.23
2019-02-22T01:20:54.472Z,101792.59
2019-02-22T01:21:24.705Z,101797.39
2019-02-22T01:21:56.020Z,101794.92
2019-02-22T01:22:27.266Z,101794.02
2019-02-22T01:22:58.601Z,101802.05
2019-02-22T01:23:29.872Z,101802.05
2019-02-22T01:24:01.194Z,101793.77
2019-02-22T01:24:32.501Z,101801.53
2019-02-22T01:25:04.077Z,101798.45
2019-02-22T01:25:35.491Z,101815.38
2019-02-22T01:26:06.827Z,101801.44
2019-02-22T01:26:38.137Z,101803.13
2019-02-22T01:27:09.538Z,101805.33
2019-02-22T01:27:40.911Z,101811.02
2019-02-22T01:28:15.014Z,101807.52
2019-02-22T01:28:46.512Z,101807.52
2019-02-22T01:29:17.900Z,101814.09
2019-02-22T01:29:49.207Z,101821.86
2019-02-22T01:30:20.433Z,101817.88
2019-02-22T01:30:51.748Z,101818.36
2019-02-22T01:31:22.983Z,101822.38
2019-02-22T01:31:54.314Z,101829.23
2019-02-22T01:32:25.568Z,101820.95
2019-02-22T01:32:56.882Z,101820.95
2019-02-22T01:33:28.112Z,101823.06
2019-02-22T01:33:59.438Z,101833.64
2019-02-22T01:34:30.686Z,101833.64
2019-02-22T01:35:02.006Z,101832.12
2019-02-22T01:35:34.400Z,101825.30
2019-02-22T01:36:05.822Z,101840.14
2019-02-22T01:36:37.156Z,101834.97
2019-02-22T01:37:08.504Z,101829.79
2019-02-22T01:37:39.769Z,101829.79
2019-02-22T01:38:11.128Z,101831.99
2019-02-22T01:38:43.355Z,101831.99
2019-02-22T01:39:14.778Z,101836.27
2019-02-22T01:39:46.069Z,101839.15
2019-02-22T01:40:17.449Z,101839.15
2019-02-22T01:40:48.788Z,101841.22
2019-02-22T01:41:20.240Z,101839.41
2019-02-22T01:41:51.583Z,101852.91
2019-02-22T01:42:23.927Z,101851.88
2019-02-22T01:42:55.380Z,101849.19
2019-02-22T01:43:26.698Z,101859.16
2019-02-22T01:43:58.051Z,101848.54
2019-02-22T01:44:29.391Z,101852.33
2019-02-22T01:45:00.695Z,101860.35
2019-02-22T01:45:31.923Z,101858.58
2019-02-22T01:46:03.387Z,101860.13
2019-02-22T01:46:34.601Z,101854.05
2019-02-22T01:47:05.899Z,101866.47
2019-02-22T01:47:37.159Z,101862.20
2019-02-22T01:48:08.472Z,101865.08
2019-02-22T01:48:39.733Z,101860.55
2019-02-22T01:49:11.022Z,101863.52
2019-02-22T01:49:42.265Z,101866.92
2019-02-22T01:50:20.580Z,101866.79
2019-02-22T01:50:51.901Z,101870.55
2019-02-22T01:51:23.304Z,101874.84
2019-02-22T01:51:54.556Z,101872.73
2019-02-22T01:52:25.872Z,101864.63
2019-02-22T01:52:57.111Z,101871.73
2019-02-22T01:53:28.431Z,101876.14
2019-02-22T01:53:59.654Z,101869.67
2019-02-22T01:54:31.976Z,101867.73
2019-02-22T01:55:03.265Z,101873.29
2019-02-22T01:55:34.775Z,101873.84
2019-02-22T01:56:06.222Z,101873.84
2019-02-22T01:56:37.548Z,101870.25
2019-02-22T01:57:08.959Z,101880.31
2019-02-22T01:57:40.299Z,101878.11
2019-02-22T01:58:11.745Z,101879.78
2019-02-22T01:58:48.724Z,101882.53
2019-02-22T01:59:16.481Z,101888.00
2019-02-22T01:59:47.808Z,101890.45
2019-02-22T02:00:19.147Z,101898.34
2019-02-22T02:00:50.468Z,101887.73
2019-02-22T02:01:21.780Z,101893.81
2019-02-22T02:01:53.113Z,101895.49
2019-02-22T02:02:24.420Z,101899.38
2019-02-22T02:02:55.677Z,101901.19
2019-02-22T02:03:26.989Z,101899.38
2019-02-22T02:03:58.237Z,101895.01
2019-02-22T02:04:29.691Z,101902.77
2019-02-22T02:05:00.987Z,101895.39
2019-02-22T02:05:32.337Z,101896.30
2019-02-22T02:06:03.707Z,101897.20
2019-02-22T02:06:35.042Z,101895.11
2019-02-22T02:07:06.371Z,101902.48
2019-02-22T02:07:38.738Z,101900.55
2019-02-22T02:08:10.183Z,101903.91
2019-02-22T02:08:41.505Z,101892.13
2019-02-22T02:09:12.864Z,101897.59
2019-02-22T02:09:44.251Z,101903.16
2019-02-22T02:10:15.649Z,101894.48
2019-02-22T02:10:53.893Z,101897.20
2019-02-22T02:11:20.076Z,101894.48
2019-02-22T02:11:51.309Z,101895.39
2019-02-22T02:12:22.616Z,101888.80
2019-02-22T02:12:53.838Z,101901.73
2019-02-22T02:13:25.144Z,101902.92
2019-02-22T02:13:56.427Z,101898.52
2019-02-22T02:14:27.734Z,101907.67
2019-02-22T02:14:58.998Z,101912.09
2019-02-22T02:15:30.310Z,101912.09
2019-02-22T02:16:01.548Z,101921.05
2019-02-22T02:16:33.866Z,101915.36
2019-02-22T02:17:05.110Z,101924.18
2019-02-22T02:17:36.471Z,101929.73
2019-02-22T02:18:07.776Z,101931.94
2019-02-22T02:18:39.136Z,101927.54
2019-02-22T02:19:10.358Z,101927.54
2019-02-22T02:19:42.776Z,101932.19
2019-02-22T02:20:14.166Z,101931.67
2019-02-22T02:20:45.980Z,101934.26
2019-02-22T02:21:17.391Z,101931.67
2019-02-22T02:21:48.845Z,101932.06
2019-02-22T02:22:20.217Z,101930.14
2019-02-22T02:22:51.574Z,101930.14
2019-02-22T02:23:22.917Z,101933.41
2019-02-22T02:23:54.261Z,101938.58
2019-02-22T02:24:25.687Z,101934.17
2019-02-22T02:24:57.007Z,101942.94
2019-02-22T02:25:28.331Z,101937.67
2019-02-22T02:25:59.571Z,101945.95
2019-02-22T02:26:30.879Z,101945.42
2019-02-22T02:27:02.113Z,101947.49
2019-02-22T02:27:33.437Z,101949.94
2019-02-22T02:28:04.667Z,101949.94
2019-02-22T02:28:35.985Z,101949.56
2019-02-22T02:29:07.248Z,101950.08
2019-02-22T02:29:38.568Z,101944.28
2019-02-22T02:30:09.830Z,101946.87
2019-02-22T02:30:41.208Z,101945.96
2019-02-22T02:31:12.740Z,101957.60
2019-02-22T02:31:44.145Z,101953.45
2019-02-22T02:32:15.368Z,101960.82
2019-02-22T02:32:46.677Z,101969.77
2019-02-22T02:33:18.081Z,101974.67
2019-02-22T02:33:49.459Z,101974.67
2019-02-22T02:34:20.749Z,101972.50
2019-02-22T02:34:52.102Z,101978.55
2019-02-22T02:35:23.409Z,101976.88
2019-02-22T02:35:54.638Z,101982.05
2019-02-22T02:36:26.050Z,101987.59
2019-02-22T02:36:57.294Z,101976.63
2019-02-22T02:37:28.600Z,101983.87
2019-02-22T02:37:59.873Z,101988.12
2019-02-22T02:38:31.199Z,101992.29
2019-02-22T02:39:03.847Z,101996.94
2019-02-22T02:39:37.097Z,101991.25
2019-02-22T02:40:08.397Z,101991.14
2019-02-22T02:40:39.635Z,101998.09
2019-02-22T02:41:11.589Z,101997.99
2019-02-22T02:41:44.389Z,102002.39
2019-02-22T02:42:15.613Z,102001.09
2019-02-22T02:42:46.888Z,102000.05
2019-02-22T02:43:18.091Z,102006.13
2019-02-22T02:43:49.337Z,102007.05
2019-02-22T02:44:20.510Z,102009.11
2019-02-22T02:44:51.799Z,102006.52
2019-02-22T02:45:22.995Z,102007.67
2019-02-22T02:45:54.301Z,102006.28
2019-02-22T02:46:25.565Z,102011.97
2019-02-22T02:46:56.821Z,102014.03
2019-02-22T02:47:28.264Z,102008.72
2019-02-22T02:47:59.713Z,102016.72
2019-02-22T02:48:31.078Z,102016.72
2019-02-22T02:49:02.469Z,102016.86
2019-02-22T02:49:33.778Z,102018.54
2019-02-22T02:50:06.591Z,102016.34
2019-02-22T02:50:37.911Z,102014.14
2019-02-22T02:51:09.259Z,102019.31
2019-02-22T02:51:40.523Z,102015.57
2019-02-22T02:52:11.752Z,102015.57
2019-02-22T02:52:43.558Z,102017.25
2019-02-22T02:53:15.849Z,102021.93
2019-02-22T02:53:47.046Z,102029.27
2019-02-22T02:54:18.284Z,102025.14
2019-02-22T02:54:49.524Z,102022.31
2019-02-22T02:55:28.351Z,102018.97
2019-02-22T02:55:59.688Z,102029.41
2019-02-22T02:56:30.925Z,102034.48
2019-02-22T02:57:02.163Z,102040.41
2019-02-22T02:57:33.528Z,102035.00
2019-02-22T02:58:04.915Z,102038.34
2019-02-22T02:58:36.306Z,102045.34
2019-02-22T02:59:07.689Z,102040.94
2019-02-22T02:59:39.032Z,102045.34
2019-02-22T03:00:10.489Z,102047.92
2019-02-22T03:00:41.882Z,102047.92
2019-02-22T03:01:14.223Z,102056.97
2019-02-22T03:01:45.851Z,102052.18
2019-02-22T03:02:18.915Z,102056.97
2019-02-22T03:02:50.185Z,102059.03
2019-02-22T03:03:21.468Z,102062.13
2019-02-22T03:03:52.823Z,102061.99
2019-02-22T03:04:24.099Z,102063.67
2019-02-22T03:04:55.397Z,102057.20
2019-02-22T03:05:28.518Z,102064.97
2019-02-22T03:06:01.637Z,102065.77
2019-02-22T03:06:46.492Z,102059.93
2019-02-22T03:07:35.962Z,102059.55
2019-02-22T03:08:07.243Z,102073.23
2019-02-22T03:08:38.581Z,102066.25
2019-02-22T03:09:09.830Z,102069.64
2019-02-22T03:09:41.729Z,102071.42
2019-02-22T03:10:12.953Z,102067.55
2019-02-22T03:10:44.379Z,102067.96
2019-02-22T03:11:20.585Z,102075.71
2019-02-22T03:11:49.189Z,102074.80
2019-02-22T03:12:20.567Z,102080.36
2019-02-22T03:12:51.931Z,102083.33
2019-02-22T03:13:23.304Z,102086.81
2019-02-22T03:13:54.755Z,102081.51
2019-02-22T03:14:26.153Z,102085.00
2019-02-22T03:14:57.478Z,102091.31
2019-02-22T03:15:28.891Z,102088.25
2019-02-22T03:16:00.171Z,102096.00
2019-02-22T03:16:31.375Z,102089.53
2019-02-22T03:17:02.643Z,102090.45
2019-02-22T03:17:34.987Z,102096.00
2019-02-22T03:18:06.407Z,102096.38
2019-02-22T03:18:37.725Z,102097.67
2019-02-22T03:19:09.102Z,102094.70
2019-02-22T03:19:40.449Z,102095.47
2019-02-22T03:20:11.891Z,102108.53
2019-02-22T03:20:44.428Z,102104.23
2019-02-22T03:21:16.898Z,102107.10
2019-02-22T03:21:48.273Z,102110.06
2019-02-22T03:22:19.716Z,102107.10
2019-02-22T03:22:51.245Z,102105.28
2019-02-22T03:23:22.656Z,102100.87
2019-02-22T03:23:53.956Z,102102.55
2019-02-22T03:24:25.441Z,102101.69
2019-02-22T03:24:56.721Z,102104.89
2019-02-22T03:25:28.112Z,102108.13
2019-02-22T03:25:59.387Z,102113.30
2019-02-22T03:26:30.747Z,102109.42
2019-02-22T03:27:02.166Z,102112.77
2019-02-22T03:27:33.562Z,102120.28
2019-02-22T03:28:04.951Z,102120.77
2019-02-22T03:28:36.425Z,102119.38
2019-02-22T03:29:07.707Z,102124.65
2019-02-22T03:29:39.019Z,102128.03
2019-02-22T03:30:10.310Z,102121.16
2019-02-22T03:30:41.914Z,102127.12
2019-02-22T03:31:13.221Z,102131.91
2019-02-22T03:31:44.583Z,102126.74
2019-02-22T03:32:15.877Z,102127.23
2019-02-22T03:32:47.276Z,102130.62
2019-02-22T03:33:18.658Z,102126.22
2019-02-22T03:33:50.103Z,102132.67
2019-02-22T03:34:21.427Z,102129.56
2019-02-22T03:34:52.674Z,102125.69
2019-02-22T03:35:23.874Z,102126.98
2019-02-22T03:35:55.200Z,102129.56
2019-02-22T03:36:26.512Z,102126.84
2019-02-22T03:36:57.898Z,102130.98
2019-02-22T03:37:29.203Z,102126.06
2019-02-22T03:38:00.605Z,102131.50
2019-02-22T03:38:32.152Z,102142.36
2019-02-22T03:39:04.904Z,102145.33
2019-02-22T03:39:38.283Z,102153.45
2019-02-22T03:40:09.811Z,102156.04
2019-02-22T03:40:41.472Z,102157.19
2019-02-22T03:41:13.116Z,102157.46
2019-02-22T03:41:44.701Z,102151.77
2019-02-22T03:42:15.921Z,102150.62
2019-02-22T03:42:47.281Z,102158.75
2019-02-22T03:43:18.600Z,102160.66
2019-02-22T03:43:50.037Z,102164.42
2019-02-22T03:44:21.390Z,102167.12
2019-02-22T03:44:52.761Z,102167.12
2019-02-22T03:45:24.162Z,102171.38
2019-02-22T03:45:55.421Z,102165.72
2019-02-22T03:46:26.748Z,102169.59
2019-02-22T03:46:58.197Z,102172.94
2019-02-22T03:47:29.504Z,102175.91
2019-02-22T03:48:00.975Z,102177.96
2019-02-22T03:48:32.275Z,102177.33
2019-02-22T03:49:03.619Z,102180.14
2019-02-22T03:49:34.956Z,102180.94
2019-02-22T03:50:06.853Z,102178.73
2019-02-22T03:50:38.257Z,102179.73
2019-02-22T03:51:09.663Z,102183.61
2019-02-22T03:51:41.071Z,102185.28
2019-02-22T03:52:17.195Z,102182.31
2019-02-22T03:52:53.277Z,102189.69
2019-02-22T03:53:26.606Z,102193.56
2019-02-22T03:53:58.151Z,102188.28
2019-02-22T03:54:29.542Z,102194.21
2019-02-22T03:55:01.124Z,102194.97
2019-02-22T03:55:33.503Z,102189.66
2019-02-22T03:56:05.035Z,102186.70
2019-02-22T03:56:36.474Z,102204.54
2019-02-22T03:57:07.918Z,102202.34
2019-02-22T03:57:39.298Z,102202.99
2019-02-22T03:58:10.659Z,102197.15
2019-02-22T03:58:42.127Z,102204.52
2019-02-22T03:59:13.687Z,102206.72
2019-02-22T03:59:45.083Z,102205.28
2019-02-22T04:00:16.553Z,102200.64
2019-02-22T04:00:47.931Z,102200.11
2019-02-22T04:01:19.313Z,102206.56
2019-02-22T04:01:50.761Z,102213.93
2019-02-22T04:02:22.317Z,102218.19
2019-02-22T04:02:53.800Z,102217.28
2019-02-22T04:03:25.140Z,102215.88
2019-02-22T04:03:56.622Z,102217.02
2019-02-22T04:04:27.938Z,102216.75
2019-02-22T04:04:59.304Z,102217.52
2019-02-22T04:05:30.549Z,102216.61
2019-02-22T04:06:01.858Z,102223.97
2019-02-22T04:06:33.150Z,102224.50
2019-02-22T04:07:04.636Z,102225.64
2019-02-22T04:07:35.934Z,102217.90
2019-02-22T04:08:07.482Z,102228.61
2019-02-22T04:08:38.793Z,102227.31
2019-02-22T04:09:10.229Z,102221.24
2019-02-22T04:09:41.737Z,102227.20
2019-02-22T04:10:13.503Z,102228.88
2019-02-22T04:10:44.825Z,102228.88
2019-02-22T04:11:16.455Z,102234.95
2019-02-22T04:11:47.657Z,102229.11
2019-02-22T04:12:19.064Z,102233.63
2019-02-22T04:12:50.420Z,102235.67
2019-02-22T04:13:21.772Z,102236.05
2019-02-22T04:13:53.132Z,102236.97
2019-02-22T04:14:24.573Z,102235.83
2019-02-22T04:14:55.892Z,102242.28
2019-02-22T04:15:27.321Z,102245.62
2019-02-22T04:15:58.667Z,102236.81
2019-02-22T04:16:30.052Z,102241.86
2019-02-22T04:17:01.399Z,102241.72
2019-02-22T04:17:32.719Z,102243.00
2019-02-22T04:18:04.014Z,102244.83
2019-02-22T04:18:35.269Z,102246.27
2019-02-22T04:19:06.754Z,102246.27
2019-02-22T04:19:38.188Z,102239.14
2019-02-22T04:20:09.557Z,102242.89
2019-02-22T04:20:40.959Z,102250.37
2019-02-22T04:21:12.617Z,102247.79
2019-02-22T04:21:44.029Z,102249.99
2019-02-22T04:22:15.755Z,102244.30
2019-02-22T04:22:47.112Z,102248.17
2019-02-22T04:23:18.562Z,102252.04
2019-02-22T04:23:49.851Z,102253.86
2019-02-22T04:24:22.117Z,102252.30
2019-02-22T04:24:53.550Z,102255.65
2019-02-22T04:25:25.017Z,102260.81
2019-02-22T04:25:56.548Z,102258.38
2019-02-22T04:26:28.190Z,102258.38
2019-02-22T04:26:59.556Z,102258.77
2019-02-22T04:27:30.814Z,102264.57
2019-02-22T04:28:02.179Z,102263.66
2019-02-22T04:28:33.661Z,102263.28
2019-02-22T04:29:05.347Z,102260.55
2019-02-22T04:29:36.737Z,102266.50
2019-02-22T04:30:09.178Z,102257.70
2019-02-22T04:30:40.526Z,102260.43
2019-02-22T04:31:11.947Z,102266.50
2019-02-22T04:31:43.184Z,102258.98
2019-02-22T04:32:14.612Z,102255.65
2019-02-22T04:32:45.953Z,102257.55
2019-02-22T04:33:17.342Z,102261.30
2019-02-22T04:33:48.836Z,102258.72
2019-02-22T04:34:20.315Z,102266.47
2019-02-22T04:34:51.681Z,102266.31
2019-02-22T04:35:23.085Z,102269.80
2019-02-22T04:35:54.382Z,102273.53
2019-02-22T04:36:26.747Z,102277.81
2019-02-22T04:36:58.072Z,102273.41
2019-02-22T04:37:29.506Z,102276.98
2019-02-22T04:38:00.917Z,102274.66
2019-02-22T04:38:32.287Z,102274.66
2019-02-22T04:39:05.226Z,102276.71
2019-02-22T04:39:36.800Z,102279.30
2019-02-22T04:40:08.113Z,102280.58
2019-02-22T04:40:39.448Z,102282.63
2019-02-22T04:41:10.954Z,102282.14
2019-02-22T04:41:42.341Z,102283.55
2019-02-22T04:42:13.792Z,102284.61
2019-02-22T04:42:45.189Z,102278.91
2019-02-22T04:43:16.641Z,102285.22
2019-02-22T04:43:48.223Z,102290.38
2019-02-22T04:44:19.639Z,102294.78
2019-02-22T04:44:51.085Z,102298.66
2019-02-22T04:45:22.560Z,102298.12
2019-02-22T04:45:54.031Z,102302.52
2019-02-22T04:46:25.501Z,102305.10
2019-02-22T04:46:57.009Z,102313.22
2019-02-22T04:47:28.439Z,102315.80
2019-02-22T04:47:59.769Z,102311.02
2019-02-22T04:48:31.241Z,102316.19
2019-02-22T04:49:02.582Z,102316.19
2019-02-22T04:49:34.122Z,102319.56
2019-02-22T04:50:06.436Z,102319.56
2019-02-22T04:50:37.770Z,102319.56
2019-02-22T04:51:09.094Z,102322.36
2019-02-22T04:51:40.684Z,102322.25
2019-02-22T04:52:12.033Z,102323.91
2019-02-22T04:52:43.519Z,102326.88
2019-02-22T04:53:14.774Z,102328.02
2019-02-22T04:53:47.270Z,102328.39
2019-02-22T04:54:18.539Z,102328.39
2019-02-22T04:54:50.059Z,102319.14
2019-02-22T04:55:21.277Z,102319.14
2019-02-22T04:55:52.591Z,102331.61
2019-02-22T04:56:23.909Z,102328.87
2019-02-22T04:56:55.227Z,102337.15
2019-02-22T04:57:26.610Z,102334.57
2019-02-22T04:57:57.922Z,102336.77
2019-02-22T04:58:29.442Z,102338.97
2019-02-22T04:59:00.999Z,102345.42
2019-02-22T04:59:32.595Z,102341.78
2019-02-22T05:00:04.039Z,102339.73
2019-02-22T05:00:35.484Z,102343.06
2019-02-22T05:01:06.962Z,102349.90
2019-02-22T05:01:38.377Z,102348.98
2019-02-22T05:02:09.743Z,102350.43
2019-02-22T05:02:41.154Z,102348.61
2019-02-22T05:03:12.345Z,102349.90
2019-02-22T05:03:43.844Z,102358.44
2019-02-22T05:04:15.247Z,102357.89
2019-02-22T05:04:46.799Z,102361.08
2019-02-22T05:05:18.165Z,102361.08
2019-02-22T05:05:50.471Z,102366.39
2019-02-22T05:06:21.747Z,102371.55
2019-02-22T05:06:54.027Z,102371.17
2019-02-22T05:07:25.371Z,102369.73
2019-02-22T05:07:56.805Z,102380.05
2019-02-22T05:08:28.273Z,102374.36
2019-02-22T05:08:59.558Z,102376.44
2019-02-22T05:09:31.108Z,102379.40
2019-02-22T05:10:02.810Z,102377.58
2019-02-22T05:10:34.302Z,102386.98
2019-02-22T05:11:05.761Z,102388.66
2019-02-22T05:11:37.173Z,102390.47
2019-02-22T05:12:11.219Z,102393.44
2019-02-22T05:12:41.832Z,102398.06
2019-02-22T05:13:13.234Z,102394.29
2019-02-22T05:13:45.628Z,102400.89
2019-02-22T05:14:16.853Z,102398.31
2019-02-22T05:14:48.358Z,102398.31
2019-02-22T05:15:19.616Z,102400.14
2019-02-22T05:15:51.027Z,102395.36
2019-02-22T05:16:22.328Z,102402.19
2019-02-22T05:16:53.676Z,102407.34
2019-02-22T05:17:25.133Z,102410.68
2019-02-22T05:17:56.416Z,102407.56
2019-02-22T05:18:27.719Z,102406.28
2019-02-22T05:18:59.049Z,102407.19
2019-02-22T05:19:30.311Z,102412.34
2019-02-22T05:20:01.905Z,102414.70
2019-02-22T05:20:33.333Z,102407.72
2019-02-22T05:21:04.826Z,102414.55
2019-02-22T05:21:36.237Z,102412.50
2019-02-22T05:22:07.533Z,102412.34
2019-02-22T05:22:39.020Z,102411.06
2019-02-22T05:23:10.405Z,102417.01
2019-02-22T05:23:41.876Z,102420.72
2019-02-22T05:24:13.615Z,102423.52
2019-02-22T05:24:45.050Z,102418.73
2019-02-22T05:25:16.516Z,102428.02
2019-02-22T05:25:48.049Z,102420.28
2019-02-22T05:26:19.514Z,102433.72
2019-02-22T05:26:50.992Z,102423.23
2019-02-22T05:27:22.503Z,102421.58
2019-02-22T05:27:54.990Z,102430.76
2019-02-22T05:28:26.361Z,102424.31
2019-02-22T05:28:57.763Z,102425.06
2019-02-22T05:29:29.164Z,102428.18
2019-02-22T05:30:00.544Z,102425.60
2019-02-22T05:30:31.887Z,102430.45
2019-02-22T05:31:03.231Z,102431.23
2019-02-22T05:31:34.543Z,102437.27
2019-02-22T05:32:05.933Z,102432.91
2019-02-22T05:32:37.459Z,102434.95
2019-02-22T05:33:09.871Z,102441.77
2019-02-22T05:33:41.123Z,102437.63
2019-02-22T05:34:12.593Z,102444.07
2019-02-22T05:34:43.959Z,102444.07
2019-02-22T05:35:15.660Z,102445.73
2019-02-22T05:35:46.856Z,102454.61
2019-02-22T05:36:18.251Z,102461.59
2019-02-22T05:36:49.514Z,102462.12
2019-02-22T05:37:21.591Z,102469.61
2019-02-22T05:37:52.988Z,102466.12
2019-02-22T05:38:24.511Z,102468.03
2019-02-22T05:38:55.869Z,102468.66
2019-02-22T05:39:27.411Z,102474.05
2019-02-22T05:39:58.923Z,102480.11
2019-02-22T05:40:30.490Z,102479.58
2019-02-22T05:41:01.869Z,102484.20
2019-02-22T05:41:33.418Z,102483.75
2019-02-22T05:42:04.837Z,102481.05
2019-02-22T05:42:36.157Z,102482.88
2019-02-22T05:43:07.484Z,102486.33
2019-02-22T05:43:38.837Z,102485.83
2019-02-22T05:44:10.128Z,102487.13
2019-02-22T05:44:41.452Z,102490.61
2019-02-22T05:45:12.925Z,102491.37
2019-02-22T05:45:44.207Z,102483.25
2019-02-22T05:46:15.726Z,102489.00
2019-02-22T05:46:47.017Z,102485.92
2019-02-22T05:47:18.336Z,102490.01
2019-02-22T05:47:49.747Z,102489.84
2019-02-22T05:48:22.161Z,102490.09
2019-02-22T05:48:53.472Z,102492.80
2019-02-22T05:49:24.899Z,102495.38
2019-02-22T05:49:56.227Z,102497.08
2019-02-22T05:50:27.499Z,102497.58
2019-02-22T05:50:58.847Z,102495.79
2019-02-22T05:51:30.248Z,102502.61
2019-02-22T05:52:01.522Z,102509.56
2019-02-22T05:52:32.937Z,102509.44
2019-02-22T05:53:04.514Z,102513.14
2019-02-22T05:53:36.072Z,102521.87
2019-02-22T05:54:07.508Z,102521.34
2019-02-22T05:54:38.892Z,102518.38
2019-02-22T05:55:10.421Z,102520.59
2019-02-22T05:55:44.139Z,102522.25
2019-02-22T05:56:15.171Z,102515.64
2019-02-22T05:56:46.707Z,102523.62
2019-02-22T05:57:18.148Z,102525.95
2019-02-22T05:57:49.645Z,102524.91
2019-02-22T05:58:21.061Z,102525.95
2019-02-22T05:58:52.427Z,102534.10
2019-02-22T05:59:23.844Z,102533.56
2019-02-22T05:59:55.264Z,102540.92
2019-02-22T06:00:26.780Z,102536.52